createdAt,value
2018-12-17T00:02:09.462Z,53.73
2018-12-17T00:04:36.118Z,53.08
2018-12-17T00:07:02.782Z,50.38
2018-12-17T00:09:29.483Z,54.85
2018-12-17T00:11:56.151Z,57.98
2018-12-17T00:14:22.810Z,54.73
2018-12-17T00:16:49.502Z,51.23
2018-12-17T00:19:16.171Z,55.10
2018-12-17T00:21:42.835Z,59.67
2018-12-17T00:24:09.522Z,55.92
2018-12-17T00:26:36.181Z,55.20
2018-12-17T00:29:02.837Z,61.02
2018-12-17T00:31:29.522Z,67.10
2018-12-17T00:33:56.175Z,50.15
2018-12-17T00:36:22.863Z,59.03
2018-12-17T00:38:49.524Z,62.43
2018-12-17T00:41:16.229Z,66.33
2018-12-17T00:43:42.899Z,55.15
2018-12-17T00:46:09.669Z,65.15
2018-12-17T00:48:36.359Z,59.33
2018-12-17T00:51:03.046Z,55.75
2018-12-17T00:53:29.717Z,62.15
2018-12-17T00:55:56.397Z,55.83
2018-12-17T00:58:23.049Z,55.83
2018-12-17T01:00:49.715Z,57.33
2018-12-17T01:03:16.405Z,57.17
2018-12-17T01:05:43.065Z,66.40
2018-12-17T01:08:09.801Z,52.38
2018-12-17T01:10:36.502Z,61.42
2018-12-17T01:13:03.295Z,61.50
2018-12-17T01:15:29.957Z,58.63
2018-12-17T01:17:56.651Z,63.78
2018-12-17T01:20:23.300Z,59.15
2018-12-17T01:22:49.990Z,62.70
2018-12-17T01:25:16.644Z,56.68
2018-12-17T01:27:43.341Z,54.73
2018-12-17T01:30:10.055Z,62.53
2018-12-17T01:32:36.721Z,58.75
2018-12-17T01:35:03.881Z,58.33
2018-12-17T01:37:30.558Z,58.78
2018-12-17T01:39:57.226Z,57.43
2018-12-17T01:42:23.914Z,61.95
2018-12-17T01:44:50.584Z,62.20
2018-12-17T01:47:17.278Z,63.05
2018-12-17T01:49:43.938Z,57.50
2018-12-17T01:52:10.592Z,54.42
2018-12-17T01:54:37.289Z,83.42
2018-12-17T01:57:03.960Z,62.53
2018-12-17T01:59:30.632Z,57.08
2018-12-17T02:01:57.488Z,61.18
2018-12-17T02:04:24.156Z,64.35
2018-12-17T02:06:50.828Z,63.83
2018-12-17T02:09:17.508Z,60.63
2018-12-17T02:11:44.199Z,62.35
2018-12-17T02:14:10.864Z,59.60
2018-12-17T02:16:37.526Z,67.67
2018-12-17T02:19:04.205Z,68.15
2018-12-17T02:21:30.878Z,72.10
2018-12-17T02:23:57.642Z,61.20
2018-12-17T02:26:24.326Z,69.30
2018-12-17T02:28:51.014Z,66.30
2018-12-17T02:31:17.782Z,56.65
2018-12-17T02:33:44.436Z,59.77
2018-12-17T02:36:11.103Z,60.00
2018-12-17T02:38:37.793Z,62.05
2018-12-17T02:41:04.478Z,61.92
2018-12-17T02:43:31.161Z,60.40
2018-12-17T02:45:57.834Z,60.55
2018-12-17T02:48:24.527Z,65.40
2018-12-17T02:50:51.183Z,56.77
2018-12-17T02:53:17.856Z,60.45
2018-12-17T02:55:44.544Z,71.17
2018-12-17T02:58:11.283Z,58.25
2018-12-17T03:00:37.956Z,61.13
2018-12-17T03:03:04.663Z,69.30
2018-12-17T03:05:31.327Z,64.95
2018-12-17T03:07:58.005Z,67.22
2018-12-17T03:10:24.677Z,67.30
2018-12-17T03:12:51.419Z,65.62
2018-12-17T03:15:18.158Z,62.55
2018-12-17T03:17:44.826Z,58.87
2018-12-17T03:20:11.537Z,60.17
2018-12-17T03:22:38.197Z,66.15
2018-12-17T03:25:04.858Z,66.28
2018-12-17T03:27:31.539Z,64.70
2018-12-17T03:29:58.224Z,58.78
2018-12-17T03:32:24.896Z,78.02
2018-12-17T03:34:51.563Z,64.50
2018-12-17T03:37:18.253Z,69.58
2018-12-17T03:39:44.947Z,67.42
2018-12-17T03:42:11.628Z,60.33
2018-12-17T03:44:38.322Z,63.30
2018-12-17T03:47:05.002Z,57.90
2018-12-17T03:49:31.656Z,67.10
2018-12-17T03:51:58.366Z,68.42
2018-12-17T03:54:25.027Z,61.37
2018-12-17T03:56:51.708Z,69.65
2018-12-17T03:59:18.402Z,60.75
2018-12-17T04:01:45.061Z,67.00
2018-12-17T04:04:11.732Z,63.02
2018-12-17T04:06:38.423Z,52.08
2018-12-17T04:09:05.627Z,69.85
2018-12-17T04:11:32.327Z,68.33
2018-12-17T04:13:58.990Z,69.53
2018-12-17T04:16:25.654Z,67.65
2018-12-17T04:18:52.343Z,66.53
2018-12-17T04:21:19.010Z,62.60
2018-12-17T04:23:45.680Z,66.12
2018-12-17T04:26:12.356Z,73.72
2018-12-17T04:28:39.037Z,64.07
2018-12-17T04:31:05.708Z,58.87
2018-12-17T04:33:32.378Z,61.68
2018-12-17T04:35:59.053Z,67.95
2018-12-17T04:38:25.714Z,76.28
2018-12-17T04:40:52.395Z,67.45
2018-12-17T04:43:19.100Z,61.63
2018-12-17T04:45:45.782Z,70.78
2018-12-17T04:48:12.449Z,79.37
2018-12-17T04:50:39.100Z,71.80
2018-12-17T04:53:05.789Z,69.95
2018-12-17T04:55:32.453Z,72.62
2018-12-17T04:57:59.299Z,70.67
2018-12-17T05:00:25.990Z,70.05
2018-12-17T05:02:52.668Z,65.62
2018-12-17T05:05:19.347Z,71.25
2018-12-17T05:07:46.112Z,63.85
2018-12-17T05:10:12.781Z,73.40
2018-12-17T05:12:39.543Z,71.45
2018-12-17T05:15:06.211Z,77.00
2018-12-17T05:17:32.920Z,73.15
2018-12-17T05:19:59.661Z,65.20
2018-12-17T05:22:26.324Z,75.50
2018-12-17T05:24:53.052Z,66.55
2018-12-17T05:27:19.782Z,69.00
2018-12-17T05:29:46.520Z,72.45
2018-12-17T05:32:13.267Z,65.65
2018-12-17T05:34:40.000Z,75.85
2018-12-17T05:37:06.747Z,74.80
2018-12-17T05:39:33.481Z,72.90
2018-12-17T05:42:00.169Z,73.97
2018-12-17T05:44:26.845Z,62.30
2018-12-17T05:46:53.507Z,72.95
2018-12-17T05:49:20.218Z,72.20
2018-12-17T05:51:46.980Z,66.62
2018-12-17T05:54:13.659Z,61.63
2018-12-17T05:56:40.327Z,73.85
2018-12-17T05:59:07.009Z,72.15
2018-12-17T06:01:33.666Z,79.17
2018-12-17T06:04:00.328Z,63.80
2018-12-17T06:06:27.008Z,74.72
2018-12-17T06:08:53.704Z,74.45
2018-12-17T06:11:20.362Z,68.67
2018-12-17T06:13:47.129Z,73.35
2018-12-17T06:16:13.794Z,72.27
2018-12-17T06:18:40.742Z,72.37
2018-12-17T06:21:07.490Z,71.70
2018-12-17T06:23:34.169Z,68.00
2018-12-17T06:26:00.838Z,74.05
2018-12-17T06:28:27.529Z,64.37
2018-12-17T06:30:54.186Z,62.33
2018-12-17T06:33:22.713Z,66.57
2018-12-17T06:35:55.240Z,69.47
2018-12-17T06:38:22.313Z,80.83
2018-12-17T06:40:48.998Z,71.72
2018-12-17T06:43:15.668Z,65.85
2018-12-17T06:45:42.330Z,61.68
2018-12-17T06:48:09.008Z,68.87
2018-12-17T06:50:35.675Z,73.37
2018-12-17T06:53:02.448Z,65.75
2018-12-17T06:55:29.114Z,73.15
2018-12-17T06:57:55.869Z,62.27
2018-12-17T07:00:22.567Z,69.55
2018-12-17T07:02:49.235Z,69.87
2018-12-17T07:05:15.941Z,78.45
2018-12-17T07:07:42.685Z,63.60
2018-12-17T07:10:09.406Z,64.75
2018-12-17T07:12:36.167Z,64.05
2018-12-17T07:15:03.105Z,64.77
2018-12-17T07:17:29.802Z,63.55
2018-12-17T07:19:56.470Z,70.28
2018-12-17T07:22:23.229Z,75.45
2018-12-17T07:24:49.901Z,70.90
2018-12-17T07:27:16.592Z,62.35
2018-12-17T07:29:49.583Z,56.80
2018-12-17T07:32:11.933Z,67.22
2018-12-17T07:34:38.900Z,65.78
2018-12-17T07:37:05.565Z,63.50
2018-12-17T07:39:32.939Z,67.67
2018-12-17T07:41:59.815Z,63.52
2018-12-17T07:44:26.470Z,61.20
2018-12-17T07:46:53.155Z,58.55
2018-12-17T07:49:19.911Z,58.63
2018-12-17T07:51:46.679Z,60.40
2018-12-17T07:54:13.350Z,72.60
2018-12-17T07:56:40.022Z,70.03
2018-12-17T07:59:06.793Z,74.37
2018-12-17T08:01:33.471Z,62.40
2018-12-17T08:04:00.275Z,59.88
2018-12-17T08:06:27.016Z,63.85
2018-12-17T08:08:53.757Z,63.55
2018-12-17T08:11:20.495Z,60.73
2018-12-17T08:13:47.236Z,62.15
2018-12-17T08:16:13.975Z,68.17
2018-12-17T08:18:40.715Z,83.78
2018-12-17T08:21:07.457Z,69.53
2018-12-17T08:23:34.297Z,64.72
2018-12-17T08:26:01.049Z,78.10
2018-12-17T08:28:27.714Z,68.05
2018-12-17T08:30:54.419Z,77.00
2018-12-17T08:33:21.101Z,70.55
2018-12-17T08:35:47.801Z,70.67
2018-12-17T08:38:14.537Z,73.85
2018-12-17T08:40:41.206Z,67.25
2018-12-17T08:43:07.889Z,76.22
2018-12-17T08:45:34.544Z,71.92
2018-12-17T08:48:01.217Z,73.80
2018-12-17T08:50:27.895Z,74.47
2018-12-17T08:52:54.675Z,65.30
2018-12-17T08:55:21.362Z,72.12
2018-12-17T08:57:48.026Z,72.25
2018-12-17T09:00:14.788Z,70.80
2018-12-17T09:02:41.457Z,70.15
2018-12-17T09:05:08.129Z,63.05
2018-12-17T09:09:24.340Z,69.67
2018-12-17T09:11:51.039Z,62.95
2018-12-17T09:14:17.713Z,80.47
2018-12-17T09:16:44.481Z,63.63
2018-12-17T09:19:11.183Z,57.70
2018-12-17T09:21:37.853Z,65.37
2018-12-17T09:24:04.525Z,66.47
2018-12-17T09:26:31.232Z,73.65
2018-12-17T09:28:57.922Z,69.67
2018-12-17T09:31:24.626Z,65.42
2018-12-17T09:33:51.308Z,68.28
2018-12-17T09:36:18.011Z,61.35
2018-12-17T09:38:44.680Z,59.00
2018-12-17T09:41:11.482Z,71.12
2018-12-17T09:43:38.177Z,72.70
2018-12-17T09:46:04.857Z,77.32
2018-12-17T09:48:31.561Z,70.87
2018-12-17T09:50:58.751Z,70.15
2018-12-17T09:53:25.433Z,65.87
2018-12-17T09:55:52.127Z,72.42
2018-12-17T09:58:18.793Z,75.47
2018-12-17T10:00:45.474Z,59.88
2018-12-17T10:03:12.191Z,67.67
2018-12-17T10:05:38.862Z,72.87
2018-12-17T10:08:05.540Z,69.95
2018-12-17T10:10:32.259Z,66.57
2018-12-17T10:12:58.938Z,75.12
2018-12-17T10:15:25.617Z,66.97
2018-12-17T10:17:52.314Z,57.50
2018-12-17T10:20:19.001Z,57.65
2018-12-17T10:22:45.701Z,66.55
2018-12-17T10:25:12.446Z,59.20
2018-12-17T10:27:39.185Z,57.27
2018-12-17T10:30:05.882Z,50.78
2018-12-17T10:32:32.556Z,56.28
2018-12-17T10:34:59.273Z,53.90
2018-12-17T10:37:25.955Z,53.20
2018-12-17T10:39:52.648Z,78.72
2018-12-17T10:42:19.352Z,65.37
2018-12-17T10:44:46.027Z,58.17
2018-12-17T10:47:12.702Z,48.35
2018-12-17T10:49:39.419Z,48.65
2018-12-17T10:52:06.085Z,61.13
2018-12-17T10:54:32.759Z,48.10
2018-12-17T10:56:59.456Z,57.70
2018-12-17T10:59:26.126Z,47.25
2018-12-17T11:02:09.703Z,60.92
2018-12-17T11:04:38.367Z,53.92
2018-12-17T11:07:05.116Z,51.80
2018-12-17T11:09:31.810Z,45.33
2018-12-17T11:11:58.496Z,52.85
2018-12-17T11:14:25.175Z,47.08
2018-12-17T11:16:52.088Z,51.83
2018-12-17T11:19:18.776Z,53.92
2018-12-17T11:21:45.469Z,54.63
2018-12-17T11:24:12.151Z,40.63
2018-12-17T11:26:38.837Z,45.05
2018-12-17T11:29:05.543Z,44.60
2018-12-17T11:31:32.217Z,41.45
2018-12-17T11:33:58.891Z,42.62
2018-12-17T11:36:25.615Z,41.77
2018-12-17T11:38:52.310Z,46.95
2018-12-17T11:41:19.070Z,46.48
2018-12-17T11:43:45.765Z,45.52
2018-12-17T11:46:12.438Z,54.93
2018-12-17T11:48:39.693Z,51.10
2018-12-17T11:51:06.436Z,48.08
2018-12-17T11:53:33.121Z,43.15
2018-12-17T11:55:59.801Z,48.23
2018-12-17T11:58:26.493Z,46.73
2018-12-17T12:00:55.143Z,57.60
2018-12-17T12:03:21.816Z,50.43
2018-12-17T12:05:48.618Z,45.92
2018-12-17T12:08:15.289Z,43.85
2018-12-17T12:10:42.001Z,44.60
2018-12-17T12:13:08.669Z,47.43
2018-12-17T12:15:35.341Z,49.20
2018-12-17T12:18:02.039Z,44.45
2018-12-17T12:20:28.717Z,47.65
2018-12-17T12:22:55.395Z,50.55
2018-12-17T12:25:22.076Z,47.65
2018-12-17T12:27:48.776Z,56.28
2018-12-17T12:30:15.455Z,46.23
2018-12-17T12:32:42.126Z,51.15
2018-12-17T12:35:09.902Z,47.48
2018-12-17T12:37:36.581Z,47.30
2018-12-17T12:40:03.754Z,50.17
2018-12-17T12:42:30.439Z,52.00
2018-12-17T12:44:57.133Z,49.03
2018-12-17T12:47:23.809Z,46.50
2018-12-17T12:49:50.482Z,49.48
2018-12-17T12:52:17.177Z,49.15
2018-12-17T12:54:43.854Z,42.17
2018-12-17T12:57:10.537Z,41.02
2018-12-17T12:59:37.237Z,45.08
2018-12-17T13:02:03.909Z,46.88
2018-12-17T13:04:30.602Z,36.63
2018-12-17T13:06:57.286Z,44.83
2018-12-17T13:09:24.073Z,39.78
2018-12-17T13:11:50.739Z,43.15
2018-12-17T13:14:17.414Z,42.50
2018-12-17T13:16:44.189Z,39.03
2018-12-17T13:19:10.863Z,39.30
2018-12-17T13:21:37.528Z,40.45
2018-12-17T13:24:04.226Z,36.00
2018-12-17T13:26:30.919Z,36.35
2018-12-17T13:28:57.681Z,41.05
2018-12-17T13:31:24.348Z,37.13
2018-12-17T13:33:51.048Z,35.17
2018-12-17T13:36:17.728Z,46.75
2018-12-17T13:38:44.437Z,37.45
2018-12-17T13:41:11.114Z,38.63
2018-12-17T13:43:37.816Z,39.53
2018-12-17T13:46:04.501Z,42.00
2018-12-17T13:48:31.194Z,38.55
2018-12-17T13:50:59.869Z,41.48
2018-12-17T13:53:31.707Z,41.58
2018-12-17T13:55:58.382Z,42.88
2018-12-17T13:58:25.099Z,55.40
2018-12-17T14:00:51.786Z,41.23
2018-12-17T14:03:18.465Z,48.73
2018-12-17T14:05:45.162Z,40.85
2018-12-17T14:08:11.833Z,45.30
2018-12-17T14:10:44.261Z,43.85
2018-12-17T14:13:10.930Z,38.67
2018-12-17T14:15:43.538Z,45.45
2018-12-17T14:18:13.118Z,39.90
2018-12-17T14:20:45.761Z,40.03
2018-12-17T14:23:12.449Z,52.33
2018-12-17T14:25:39.131Z,40.70
2018-12-17T14:28:05.848Z,45.00
2018-12-17T14:30:32.521Z,40.60
2018-12-17T14:32:59.201Z,44.98
2018-12-17T14:35:25.906Z,47.98
2018-12-17T14:37:58.229Z,43.68
2018-12-17T14:40:24.923Z,34.18
2018-12-17T14:42:51.600Z,39.10
2018-12-17T14:45:18.282Z,42.58
2018-12-17T14:47:44.977Z,44.83
2018-12-17T14:50:11.650Z,37.63
2018-12-17T14:52:38.353Z,39.98
2018-12-17T14:55:05.415Z,39.35
2018-12-17T14:57:32.080Z,38.15
2018-12-17T14:59:58.778Z,38.58
2018-12-17T15:02:25.450Z,40.08
2018-12-17T15:04:52.166Z,42.40
2018-12-17T15:07:18.838Z,49.00
2018-12-17T15:09:45.645Z,44.88
2018-12-17T15:12:12.346Z,45.33
2018-12-17T15:14:39.018Z,42.48
2018-12-17T15:17:05.718Z,50.83
2018-12-17T15:19:32.397Z,51.42
2018-12-17T15:21:59.066Z,33.10
2018-12-17T15:24:25.761Z,48.25
2018-12-17T15:26:52.462Z,37.00
2018-12-17T15:29:19.138Z,34.27
2018-12-17T15:31:45.831Z,39.45
2018-12-17T15:34:12.522Z,42.83
2018-12-17T15:36:40.652Z,39.70
2018-12-17T15:39:07.517Z,36.05
2018-12-17T15:41:34.189Z,33.88
2018-12-17T15:44:00.885Z,32.33
2018-12-17T15:46:27.569Z,29.32
2018-12-17T15:48:54.262Z,28.27
2018-12-17T15:51:20.945Z,29.48
2018-12-17T15:53:47.638Z,29.52
2018-12-17T15:56:14.333Z,31.68
2018-12-17T15:58:41.010Z,35.88
2018-12-17T16:01:07.711Z,41.92
2018-12-17T16:03:34.394Z,32.17
2018-12-17T16:06:01.101Z,33.45
2018-12-17T16:08:27.775Z,35.23
2018-12-17T16:10:54.453Z,31.68
2018-12-17T16:13:21.188Z,37.58
2018-12-17T16:15:47.853Z,31.27
2018-12-17T16:18:14.615Z,31.17
2018-12-17T16:20:41.322Z,35.03
2018-12-17T16:23:07.983Z,30.25
2018-12-17T16:25:34.684Z,28.05
2018-12-17T16:28:01.352Z,29.72
2018-12-17T16:30:28.026Z,29.37
2018-12-17T16:32:54.734Z,29.05
2018-12-17T16:35:21.409Z,32.08
2018-12-17T16:37:48.107Z,29.52
2018-12-17T16:40:15.057Z,28.47
2018-12-17T16:42:41.778Z,21.05
2018-12-17T16:45:08.554Z,27.05
2018-12-17T16:47:35.225Z,32.85
2018-12-17T16:50:01.921Z,28.60
2018-12-17T16:52:28.604Z,29.90
2018-12-17T16:54:55.279Z,28.75
2018-12-17T16:57:21.979Z,29.65
2018-12-17T16:59:48.658Z,25.88
2018-12-17T17:02:15.322Z,23.42
2018-12-17T17:04:42.018Z,23.95
2018-12-17T17:07:08.680Z,24.35
2018-12-17T17:09:35.376Z,24.47
2018-12-17T17:12:02.058Z,28.27
2018-12-17T17:14:28.724Z,20.50
2018-12-17T17:16:55.497Z,24.40
2018-12-17T17:19:22.187Z,31.68
2018-12-17T17:21:49.041Z,21.97
2018-12-17T17:24:15.749Z,25.60
2018-12-17T17:26:42.422Z,24.85
2018-12-17T17:29:09.110Z,25.30
2018-12-17T17:31:35.805Z,23.60
2018-12-17T17:34:02.479Z,24.47
2018-12-17T17:36:29.186Z,31.15
2018-12-17T17:38:55.861Z,20.60
2018-12-17T17:41:22.543Z,23.92
2018-12-17T17:43:49.252Z,22.98
2018-12-17T17:46:15.931Z,22.82
2018-12-17T17:48:42.610Z,27.55
2018-12-17T17:51:09.306Z,22.87
2018-12-17T17:53:35.983Z,24.90
2018-12-17T17:56:02.672Z,24.25
2018-12-17T17:58:29.517Z,24.27
2018-12-17T18:00:56.230Z,22.25
2018-12-17T18:03:22.907Z,25.48
2018-12-17T18:05:49.585Z,30.97
2018-12-17T18:08:16.248Z,22.87
2018-12-17T18:10:42.909Z,24.65
2018-12-17T18:13:09.594Z,27.05
2018-12-17T18:15:36.304Z,27.25
2018-12-17T18:18:02.984Z,27.15
2018-12-17T18:20:29.644Z,23.12
2018-12-17T18:22:56.302Z,24.70
2018-12-17T18:25:22.981Z,23.65
2018-12-17T18:27:49.637Z,23.77
2018-12-17T18:30:16.297Z,29.55
2018-12-17T18:32:43.076Z,24.75
2018-12-17T18:35:09.746Z,25.00
2018-12-17T18:37:36.417Z,26.40
2018-12-17T18:40:03.371Z,32.50
2018-12-17T18:42:30.033Z,27.60
2018-12-17T18:44:56.777Z,26.62
2018-12-17T18:47:25.926Z,23.87
2018-12-17T18:49:52.167Z,25.72
2018-12-17T18:52:18.945Z,26.82
2018-12-17T18:54:45.610Z,26.05
2018-12-17T18:57:12.323Z,24.63
2018-12-17T18:59:39.023Z,22.70
2018-12-17T19:02:05.803Z,26.52
2018-12-17T19:04:32.471Z,27.00
2018-12-17T19:06:59.162Z,25.12
2018-12-17T19:09:25.843Z,26.17
2018-12-17T19:11:52.507Z,23.62
2018-12-17T19:14:19.194Z,25.30
2018-12-17T19:16:45.906Z,23.20
2018-12-17T19:19:12.641Z,23.18
2018-12-17T19:21:39.330Z,22.52
2018-12-17T19:24:05.986Z,23.87
2018-12-17T19:26:32.668Z,22.93
2018-12-17T19:28:59.362Z,25.60
2018-12-17T19:31:26.029Z,25.37
2018-12-17T19:33:52.691Z,23.25
2018-12-17T19:36:19.377Z,24.98
2018-12-17T19:38:46.036Z,21.80
2018-12-17T19:41:12.693Z,27.60
2018-12-17T19:43:39.382Z,26.45
2018-12-17T19:46:06.054Z,29.30
2018-12-17T19:48:32.718Z,24.23
2018-12-17T19:50:59.413Z,23.67
2018-12-17T19:53:26.114Z,24.92
2018-12-17T19:55:52.772Z,25.70
2018-12-17T19:58:19.484Z,29.32
2018-12-17T20:00:46.151Z,27.40
2018-12-17T20:03:12.816Z,25.08
2018-12-17T20:05:39.521Z,24.15
2018-12-17T20:08:06.194Z,25.68
2018-12-17T20:10:32.883Z,26.12
2018-12-17T20:12:59.545Z,27.82
2018-12-17T20:15:26.234Z,31.48
2018-12-17T20:17:52.901Z,33.58
2018-12-17T20:20:19.594Z,26.37
2018-12-17T20:22:46.261Z,29.40
2018-12-17T20:25:12.913Z,29.00
2018-12-17T20:27:39.659Z,26.60
2018-12-17T20:30:07.209Z,26.40
2018-12-17T20:32:33.919Z,26.40
2018-12-17T20:35:00.670Z,26.10
2018-12-17T20:37:27.356Z,29.63
2018-12-17T20:39:54.027Z,30.50
2018-12-17T20:42:20.688Z,31.90
2018-12-17T20:44:47.386Z,27.45
2018-12-17T20:47:14.048Z,32.08
2018-12-17T20:49:40.742Z,30.05
2018-12-17T20:52:07.416Z,30.85
2018-12-17T20:54:34.105Z,31.20
2018-12-17T20:57:00.791Z,31.30
2018-12-17T20:59:27.460Z,33.42
2018-12-17T21:01:54.141Z,31.37
2018-12-17T21:04:20.827Z,33.15
2018-12-17T21:06:50.062Z,31.55
2018-12-17T21:09:16.391Z,27.95
2018-12-17T21:11:43.339Z,28.12
2018-12-17T21:14:10.026Z,29.75
2018-12-17T21:16:36.750Z,31.42
2018-12-17T21:19:03.449Z,30.80
2018-12-17T21:21:30.110Z,29.70
2018-12-17T21:23:56.797Z,33.20
2018-12-17T21:26:23.489Z,31.65
2018-12-17T21:28:50.210Z,29.98
2018-12-17T21:31:16.865Z,31.10
2018-12-17T21:33:43.544Z,30.27
2018-12-17T21:36:10.210Z,29.40
2018-12-17T21:38:36.900Z,30.25
2018-12-17T21:41:03.578Z,30.30
2018-12-17T21:43:35.886Z,31.35
2018-12-17T21:45:58.997Z,32.63
2018-12-17T21:48:25.661Z,35.68
2018-12-17T21:50:52.351Z,35.90
2018-12-17T21:53:19.009Z,34.40
2018-12-17T21:55:45.671Z,30.97
2018-12-17T21:58:12.357Z,32.38
2018-12-17T22:00:39.016Z,30.92
2018-12-17T22:03:05.692Z,32.78
2018-12-17T22:05:32.427Z,33.30
2018-12-17T22:07:59.118Z,32.78
2018-12-17T22:10:28.594Z,29.55
2018-12-17T22:12:55.663Z,30.40
2018-12-17T22:15:22.508Z,31.85
2018-12-17T22:17:49.534Z,31.80
2018-12-17T22:20:16.588Z,35.45
2018-12-17T22:22:43.435Z,31.82
2018-12-17T22:25:10.775Z,55.43
2018-12-17T22:27:37.620Z,63.15
2018-12-17T22:30:05.389Z,30.32
2018-12-17T22:32:32.335Z,31.65
2018-12-17T22:34:59.274Z,30.60
2018-12-17T22:37:26.013Z,27.27
2018-12-17T22:39:52.858Z,34.43
2018-12-17T22:42:19.617Z,29.12
2018-12-17T22:44:46.462Z,29.82
2018-12-17T22:47:13.389Z,29.45
2018-12-17T22:49:40.438Z,29.37
2018-12-17T22:52:07.380Z,29.07
2018-12-17T22:54:34.225Z,29.65
2018-12-17T22:57:01.069Z,30.30
2018-12-17T22:59:27.909Z,32.13
2018-12-17T23:01:54.850Z,31.05
2018-12-17T23:04:21.802Z,34.45
2018-12-17T23:06:49.250Z,34.18
2018-12-17T23:09:15.897Z,38.75
2018-12-17T23:11:54.612Z,29.10
2018-12-17T23:14:27.498Z,32.53
2018-12-17T23:17:00.281Z,32.58
2018-12-17T23:19:26.756Z,29.70
2018-12-17T23:21:53.533Z,32.85
2018-12-17T23:24:20.219Z,31.85
2018-12-17T23:26:46.900Z,38.00
2018-12-17T23:29:13.559Z,29.87
2018-12-17T23:31:40.321Z,32.45
2018-12-17T23:34:06.987Z,34.90
2018-12-17T23:36:33.658Z,30.88
2018-12-17T23:39:00.347Z,30.20
2018-12-17T23:41:27.015Z,27.13
2018-12-17T23:43:53.689Z,28.05
2018-12-17T23:46:20.368Z,33.78
2018-12-17T23:48:47.073Z,25.97
2018-12-17T23:51:13.758Z,35.80
2018-12-17T23:53:40.487Z,28.30
2018-12-17T23:56:07.232Z,30.60
2018-12-17T23:58:33.913Z,32.03
